Terminal Aerodrome Forecast
Issued by NWS Rapid City, SD

Current Version | Previous Version | Text Only | Print | Product List | Glossary On
Versions: 1 2 3 4 5 6 7 8 9 10 11 12 13
000
FTUS43 KUNR 201720
TAFRAP
TAF
KRAP 201720Z 2018/2118 20013KT P6SM SKC
     FM210000 17007KT P6SM SCT080
     FM210600 17007KT P6SM SCT120 WS020/19040KT
     FM211300 19009KT P6SM SCT120=

USA.gov is the U.S. government's official web portal to all federal, state and local government web resources and services.